sensor_id;sensor_type;location;lat;lon;timestamp;temperature;humidity
55642;DHT22;41509;53.108;6.100;2024-01-11T00:00:18;-4.10;99.90
55642;DHT22;41509;53.108;6.100;2024-01-11T00:02:45;-4.10;99.90
55642;DHT22;41509;53.108;6.100;2024-01-11T00:05:11;-4.10;99.90
55642;DHT22;41509;53.108;6.100;2024-01-11T00:07:37;-4.10;99.90
55642;DHT22;41509;53.108;6.100;2024-01-11T00:10:03;-4.20;99.90
55642;DHT22;41509;53.108;6.100;2024-01-11T00:12:29;-4.20;99.90
55642;DHT22;41509;53.108;6.100;2024-01-11T00:14:55;-4.20;99.90
55642;DHT22;41509;53.108;6.100;2024-01-11T00:17:20;-4.20;99.90
55642;DHT22;41509;53.108;6.100;2024-01-11T00:19:46;-4.20;99.90
55642;DHT22;41509;53.108;6.100;2024-01-11T00:22:12;-4.20;99.90
55642;DHT22;41509;53.108;6.100;2024-01-11T00:24:37;-4.20;99.90
55642;DHT22;41509;53.108;6.100;2024-01-11T00:27:03;-4.20;99.90
55642;DHT22;41509;53.108;6.100;2024-01-11T00:29:28;-4.20;99.90
55642;DHT22;41509;53.108;6.100;2024-01-11T00:31:54;-4.20;99.90
55642;DHT22;41509;53.108;6.100;2024-01-11T00:34:21;-4.20;99.90
55642;DHT22;41509;53.108;6.100;2024-01-11T00:36:47;-4.30;99.90
55642;DHT22;41509;53.108;6.100;2024-01-11T00:39:13;-4.20;99.90
55642;DHT22;41509;53.108;6.100;2024-01-11T00:41:39;-4.30;99.90
55642;DHT22;41509;53.108;6.100;2024-01-11T00:44:04;-4.20;99.90
55642;DHT22;41509;53.108;6.100;2024-01-11T00:46:30;-4.20;99.90
55642;DHT22;41509;53.108;6.100;2024-01-11T00:48:55;-4.20;99.90
55642;DHT22;41509;53.108;6.100;2024-01-11T00:51:21;-4.20;99.90
55642;DHT22;41509;53.108;6.100;2024-01-11T00:53:46;-4.20;99.90
55642;DHT22;41509;53.108;6.100;2024-01-11T00:56:19;-4.20;99.90
55642;DHT22;41509;53.108;6.100;2024-01-11T00:58:45;-4.20;99.90
55642;DHT22;41509;53.108;6.100;2024-01-11T01:01:13;-4.20;99.90
55642;DHT22;41509;53.108;6.100;2024-01-11T01:03:39;-4.20;99.90
55642;DHT22;41509;53.108;6.100;2024-01-11T01:06:05;-4.30;99.90
55642;DHT22;41509;53.108;6.100;2024-01-11T01:08:31;-4.30;99.90
55642;DHT22;41509;53.108;6.100;2024-01-11T01:10:57;-4.30;99.90
55642;DHT22;41509;53.108;6.100;2024-01-11T01:13:23;-4.30;99.90
55642;DHT22;41509;53.108;6.100;2024-01-11T01:15:48;-4.30;99.90
55642;DHT22;41509;53.108;6.100;2024-01-11T01:18:14;-4.30;99.90
55642;DHT22;41509;53.108;6.100;2024-01-11T01:20:40;-4.30;99.90
55642;DHT22;41509;53.108;6.100;2024-01-11T01:23:06;-4.40;99.90
55642;DHT22;41509;53.108;6.100;2024-01-11T01:25:31;-4.40;99.90
55642;DHT22;41509;53.108;6.100;2024-01-11T01:28:18;-4.40;99.90
55642;DHT22;41509;53.108;6.100;2024-01-11T01:30:44;-4.40;99.90
55642;DHT22;41509;53.108;6.100;2024-01-11T01:33:09;-4.40;99.90
55642;DHT22;41509;53.108;6.100;2024-01-11T01:35:35;-4.40;99.90
55642;DHT22;41509;53.108;6.100;2024-01-11T01:38:03;-4.40;99.90
55642;DHT22;41509;53.108;6.100;2024-01-11T01:40:31;-4.40;99.90
55642;DHT22;41509;53.108;6.100;2024-01-11T01:42:59;-4.40;99.90
55642;DHT22;41509;53.108;6.100;2024-01-11T01:45:25;-4.40;99.90
55642;DHT22;41509;53.108;6.100;2024-01-11T01:47:51;-4.40;99.90
55642;DHT22;41509;53.108;6.100;2024-01-11T01:50:17;-4.40;99.90
55642;DHT22;41509;53.108;6.100;2024-01-11T01:52:44;-4.40;99.90
55642;DHT22;41509;53.108;6.100;2024-01-11T01:55:10;-4.40;99.90
55642;DHT22;41509;53.108;6.100;2024-01-11T01:57:38;-4.40;99.90
55642;DHT22;41509;53.108;6.100;2024-01-11T02:00:13;-4.40;99.90
55642;DHT22;41509;53.108;6.100;2024-01-11T02:02:46;-4.40;99.90
55642;DHT22;41509;53.108;6.100;2024-01-11T02:05:14;-4.40;99.90
55642;DHT22;41509;53.108;6.100;2024-01-11T02:07:41;-4.40;99.90
55642;DHT22;41509;53.108;6.100;2024-01-11T02:10:07;-4.40;99.90
55642;DHT22;41509;53.108;6.100;2024-01-11T02:12:35;-4.40;99.90
55642;DHT22;41509;53.108;6.100;2024-01-11T02:15:01;-4.40;99.90
55642;DHT22;41509;53.108;6.100;2024-01-11T02:17:29;-4.40;99.90
55642;DHT22;41509;53.108;6.100;2024-01-11T02:19:57;-4.40;99.90
55642;DHT22;41509;53.108;6.100;2024-01-11T02:22:35;-4.40;99.90
55642;DHT22;41509;53.108;6.100;2024-01-11T02:25:01;-4.40;99.90
55642;DHT22;41509;53.108;6.100;2024-01-11T02:27:27;-4.40;99.90
55642;DHT22;41509;53.108;6.100;2024-01-11T02:29:53;-4.40;99.90
55642;DHT22;41509;53.108;6.100;2024-01-11T02:32:19;-4.40;99.90
55642;DHT22;41509;53.108;6.100;2024-01-11T02:34:45;-4.40;99.90
55642;DHT22;41509;53.108;6.100;2024-01-11T02:37:11;-4.40;99.90
55642;DHT22;41509;53.108;6.100;2024-01-11T02:39:43;-4.40;99.90
55642;DHT22;41509;53.108;6.100;2024-01-11T02:42:11;-4.40;99.90
55642;DHT22;41509;53.108;6.100;2024-01-11T02:44:37;-4.50;99.90
55642;DHT22;41509;53.108;6.100;2024-01-11T02:47:03;-4.50;99.90
55642;DHT22;41509;53.108;6.100;2024-01-11T02:49:28;-4.50;99.90
55642;DHT22;41509;53.108;6.100;2024-01-11T02:51:57;-4.50;99.90
55642;DHT22;41509;53.108;6.100;2024-01-11T02:54:22;-4.50;99.90
55642;DHT22;41509;53.108;6.100;2024-01-11T02:56:48;-4.50;99.90
55642;DHT22;41509;53.108;6.100;2024-01-11T02:59:14;-4.50;99.90
55642;DHT22;41509;53.108;6.100;2024-01-11T03:01:39;-4.50;99.90
55642;DHT22;41509;53.108;6.100;2024-01-11T03:04:05;-4.50;99.90
55642;DHT22;41509;53.108;6.100;2024-01-11T03:06:31;-4.50;99.90
55642;DHT22;41509;53.108;6.100;2024-01-11T03:08:56;-4.50;99.90
55642;DHT22;41509;53.108;6.100;2024-01-11T03:11:22;-4.50;99.90
55642;DHT22;41509;53.108;6.100;2024-01-11T03:13:48;-4.50;99.90
55642;DHT22;41509;53.108;6.100;2024-01-11T03:16:13;-4.50;99.90
55642;DHT22;41509;53.108;6.100;2024-01-11T03:18:39;-4.50;99.90
55642;DHT22;41509;53.108;6.100;2024-01-11T03:21:05;-4.60;99.90
55642;DHT22;41509;53.108;6.100;2024-01-11T03:23:30;-4.50;99.90
55642;DHT22;41509;53.108;6.100;2024-01-11T03:25:58;-4.60;99.90
55642;DHT22;41509;53.108;6.100;2024-01-11T03:28:24;-4.60;99.90
55642;DHT22;41509;53.108;6.100;2024-01-11T03:30:53;-4.60;99.90
55642;DHT22;41509;53.108;6.100;2024-01-11T03:33:21;-4.60;99.90
55642;DHT22;41509;53.108;6.100;2024-01-11T03:35:47;-4.60;99.90
55642;DHT22;41509;53.108;6.100;2024-01-11T03:38:15;-4.60;99.90
55642;DHT22;41509;53.108;6.100;2024-01-11T03:40:40;-4.50;99.90
55642;DHT22;41509;53.108;6.100;2024-01-11T03:43:06;-4.60;99.90
55642;DHT22;41509;53.108;6.100;2024-01-11T03:45:31;-4.50;99.90
55642;DHT22;41509;53.108;6.100;2024-01-11T03:47:57;-4.60;99.90
55642;DHT22;41509;53.108;6.100;2024-01-11T03:50:25;-4.50;99.90
55642;DHT22;41509;53.108;6.100;2024-01-11T03:52:51;-4.50;99.90
55642;DHT22;41509;53.108;6.100;2024-01-11T03:55:19;-4.60;99.90
55642;DHT22;41509;53.108;6.100;2024-01-11T03:57:46;-4.50;99.90
55642;DHT22;41509;53.108;6.100;2024-01-11T04:00:12;-4.50;99.90
55642;DHT22;41509;53.108;6.100;2024-01-11T04:02:38;-4.50;99.90
55642;DHT22;41509;53.108;6.100;2024-01-11T04:05:03;-4.50;99.90
55642;DHT22;41509;53.108;6.100;2024-01-11T04:07:35;-4.50;99.90
55642;DHT22;41509;53.108;6.100;2024-01-11T04:10:00;-4.50;99.90
55642;DHT22;41509;53.108;6.100;2024-01-11T04:12:26;-4.60;99.90
55642;DHT22;41509;53.108;6.100;2024-01-11T04:14:52;-4.50;99.90
55642;DHT22;41509;53.108;6.100;2024-01-11T04:17:17;-4.50;99.90
55642;DHT22;41509;53.108;6.100;2024-01-11T04:19:43;-4.60;99.90
55642;DHT22;41509;53.108;6.100;2024-01-11T04:22:08;-4.50;99.90
55642;DHT22;41509;53.108;6.100;2024-01-11T04:24:34;-4.60;99.90
55642;DHT22;41509;53.108;6.100;2024-01-11T04:27:00;-4.60;99.90
55642;DHT22;41509;53.108;6.100;2024-01-11T04:29:25;-4.60;99.90
55642;DHT22;41509;53.108;6.100;2024-01-11T04:31:51;-4.50;99.90
55642;DHT22;41509;53.108;6.100;2024-01-11T04:34:17;-4.60;99.90
55642;DHT22;41509;53.108;6.100;2024-01-11T04:36:42;-4.50;99.90
55642;DHT22;41509;53.108;6.100;2024-01-11T04:39:11;-4.50;99.90
55642;DHT22;41509;53.108;6.100;2024-01-11T04:41:36;-4.50;99.90
55642;DHT22;41509;53.108;6.100;2024-01-11T04:44:02;-4.60;99.90
55642;DHT22;41509;53.108;6.100;2024-01-11T04:46:28;-4.50;99.90
55642;DHT22;41509;53.108;6.100;2024-01-11T04:48:54;-4.50;99.90
55642;DHT22;41509;53.108;6.100;2024-01-11T04:51:19;-4.50;99.90
55642;DHT22;41509;53.108;6.100;2024-01-11T04:53:45;-4.50;99.90
55642;DHT22;41509;53.108;6.100;2024-01-11T04:56:13;-4.40;99.90
55642;DHT22;41509;53.108;6.100;2024-01-11T04:58:41;-4.40;99.90
55642;DHT22;41509;53.108;6.100;2024-01-11T05:01:07;-4.30;99.90
55642;DHT22;41509;53.108;6.100;2024-01-11T05:03:33;-4.20;99.90
55642;DHT22;41509;53.108;6.100;2024-01-11T05:05:59;-4.20;99.90
55642;DHT22;41509;53.108;6.100;2024-01-11T05:08:28;-4.10;99.90
55642;DHT22;41509;53.108;6.100;2024-01-11T05:10:53;-4.10;99.90
55642;DHT22;41509;53.108;6.100;2024-01-11T05:13:19;-4.00;99.90
55642;DHT22;41509;53.108;6.100;2024-01-11T05:15:45;-3.90;99.90
55642;DHT22;41509;53.108;6.100;2024-01-11T05:18:11;-3.90;99.90
55642;DHT22;41509;53.108;6.100;2024-01-11T05:20:37;-3.80;99.90
55642;DHT22;41509;53.108;6.100;2024-01-11T05:23:03;-3.70;99.90
55642;DHT22;41509;53.108;6.100;2024-01-11T05:25:30;-3.70;99.90
55642;DHT22;41509;53.108;6.100;2024-01-11T05:28:04;-3.60;99.90
55642;DHT22;41509;53.108;6.100;2024-01-11T05:30:33;-3.50;99.90
55642;DHT22;41509;53.108;6.100;2024-01-11T05:33:01;-3.50;99.90
55642;DHT22;41509;53.108;6.100;2024-01-11T05:35:29;-3.50;99.90
55642;DHT22;41509;53.108;6.100;2024-01-11T05:37:55;-3.40;99.90
55642;DHT22;41509;53.108;6.100;2024-01-11T05:40:20;-3.40;99.90
55642;DHT22;41509;53.108;6.100;2024-01-11T05:42:47;-3.30;99.90
55642;DHT22;41509;53.108;6.100;2024-01-11T05:45:12;-3.20;99.90
55642;DHT22;41509;53.108;6.100;2024-01-11T05:47:38;-3.20;99.90
55642;DHT22;41509;53.108;6.100;2024-01-11T05:50:06;-3.10;99.90
55642;DHT22;41509;53.108;6.100;2024-01-11T05:52:38;-3.10;99.90
55642;DHT22;41509;53.108;6.100;2024-01-11T05:55:04;-3.00;99.90
55642;DHT22;41509;53.108;6.100;2024-01-11T05:57:30;-3.00;99.90
55642;DHT22;41509;53.108;6.100;2024-01-11T05:59:56;-2.90;99.90
55642;DHT22;41509;53.108;6.100;2024-01-11T06:02:21;-2.90;99.90
55642;DHT22;41509;53.108;6.100;2024-01-11T06:04:51;-2.80;99.90
55642;DHT22;41509;53.108;6.100;2024-01-11T06:07:16;-2.80;99.90
55642;DHT22;41509;53.108;6.100;2024-01-11T06:09:42;-2.70;99.90
55642;DHT22;41509;53.108;6.100;2024-01-11T06:12:10;-2.70;99.90
55642;DHT22;41509;53.108;6.100;2024-01-11T06:14:36;-2.60;99.90
55642;DHT22;41509;53.108;6.100;2024-01-11T06:17:02;-2.60;99.90
55642;DHT22;41509;53.108;6.100;2024-01-11T06:19:28;-2.50;99.90
55642;DHT22;41509;53.108;6.100;2024-01-11T06:21:53;-2.50;99.90
55642;DHT22;41509;53.108;6.100;2024-01-11T06:24:19;-2.50;99.90
55642;DHT22;41509;53.108;6.100;2024-01-11T06:26:48;-2.50;99.90
55642;DHT22;41509;53.108;6.100;2024-01-11T06:29:13;-2.40;99.90
55642;DHT22;41509;53.108;6.100;2024-01-11T06:31:42;-2.40;99.90
55642;DHT22;41509;53.108;6.100;2024-01-11T06:34:07;-2.40;99.90
55642;DHT22;41509;53.108;6.100;2024-01-11T06:36:33;-2.30;99.90
55642;DHT22;41509;53.108;6.100;2024-01-11T06:38:59;-2.30;99.90
55642;DHT22;41509;53.108;6.100;2024-01-11T06:41:24;-2.30;99.90
55642;DHT22;41509;53.108;6.100;2024-01-11T06:43:50;-2.30;99.90
55642;DHT22;41509;53.108;6.100;2024-01-11T06:46:20;-2.20;99.90
55642;DHT22;41509;53.108;6.100;2024-01-11T06:48:49;-2.20;99.90
55642;DHT22;41509;53.108;6.100;2024-01-11T06:51:15;-2.20;99.90
55642;DHT22;41509;53.108;6.100;2024-01-11T06:53:44;-2.20;99.90
55642;DHT22;41509;53.108;6.100;2024-01-11T06:56:17;-2.10;99.90
55642;DHT22;41509;53.108;6.100;2024-01-11T06:58:44;-2.10;99.90
55642;DHT22;41509;53.108;6.100;2024-01-11T07:01:10;-2.10;99.90
55642;DHT22;41509;53.108;6.100;2024-01-11T07:03:36;-2.10;99.90
55642;DHT22;41509;53.108;6.100;2024-01-11T07:06:01;-2.10;99.90
55642;DHT22;41509;53.108;6.100;2024-01-11T07:08:28;-2.10;99.90
55642;DHT22;41509;53.108;6.100;2024-01-11T07:10:56;-2.00;99.90
55642;DHT22;41509;53.108;6.100;2024-01-11T07:13:22;-2.00;99.90
55642;DHT22;41509;53.108;6.100;2024-01-11T07:15:48;-2.00;99.90
55642;DHT22;41509;53.108;6.100;2024-01-11T07:18:14;-2.00;99.90
55642;DHT22;41509;53.108;6.100;2024-01-11T07:20:40;-1.90;99.90
55642;DHT22;41509;53.108;6.100;2024-01-11T07:23:06;-1.90;99.90
55642;DHT22;41509;53.108;6.100;2024-01-11T07:25:32;-1.90;99.90
55642;DHT22;41509;53.108;6.100;2024-01-11T07:28:01;-1.90;99.90
55642;DHT22;41509;53.108;6.100;2024-01-11T07:30:26;-1.90;99.90
55642;DHT22;41509;53.108;6.100;2024-01-11T07:32:52;-1.80;99.90
55642;DHT22;41509;53.108;6.100;2024-01-11T07:35:18;-1.80;99.90
55642;DHT22;41509;53.108;6.100;2024-01-11T07:37:45;-1.70;99.90
55642;DHT22;41509;53.108;6.100;2024-01-11T07:40:11;-1.70;99.90
55642;DHT22;41509;53.108;6.100;2024-01-11T07:42:40;-1.70;99.90
55642;DHT22;41509;53.108;6.100;2024-01-11T07:45:06;-1.70;99.90
55642;DHT22;41509;53.108;6.100;2024-01-11T07:47:33;-1.70;99.90
55642;DHT22;41509;53.108;6.100;2024-01-11T07:49:59;-1.60;99.90
55642;DHT22;41509;53.108;6.100;2024-01-11T07:52:24;-1.60;99.90
55642;DHT22;41509;53.108;6.100;2024-01-11T07:54:50;-1.60;99.90
55642;DHT22;41509;53.108;6.100;2024-01-11T07:57:16;-1.50;99.90
55642;DHT22;41509;53.108;6.100;2024-01-11T07:59:41;-1.50;99.90
55642;DHT22;41509;53.108;6.100;2024-01-11T08:02:07;-1.50;99.90
55642;DHT22;41509;53.108;6.100;2024-01-11T08:04:33;-1.50;99.90
55642;DHT22;41509;53.108;6.100;2024-01-11T08:06:58;-1.40;99.90
55642;DHT22;41509;53.108;6.100;2024-01-11T08:09:28;-1.40;99.90
55642;DHT22;41509;53.108;6.100;2024-01-11T08:11:54;-1.50;99.90
55642;DHT22;41509;53.108;6.100;2024-01-11T08:14:23;-1.40;99.90
55642;DHT22;41509;53.108;6.100;2024-01-11T08:16:49;-1.40;99.90
55642;DHT22;41509;53.108;6.100;2024-01-11T08:19:15;-1.40;99.90
55642;DHT22;41509;53.108;6.100;2024-01-11T08:21:42;-1.40;99.90
55642;DHT22;41509;53.108;6.100;2024-01-11T08:24:07;-1.40;99.90
55642;DHT22;41509;53.108;6.100;2024-01-11T08:26:33;-1.40;99.90
55642;DHT22;41509;53.108;6.100;2024-01-11T08:28:59;-1.30;99.90
55642;DHT22;41509;53.108;6.100;2024-01-11T08:31:25;-1.30;99.90
55642;DHT22;41509;53.108;6.100;2024-01-11T08:33:50;-1.30;99.90
55642;DHT22;41509;53.108;6.100;2024-01-11T08:36:16;-1.30;99.90
55642;DHT22;41509;53.108;6.100;2024-01-11T08:38:42;-1.20;99.90
55642;DHT22;41509;53.108;6.100;2024-01-11T08:41:08;-1.20;99.90
55642;DHT22;41509;53.108;6.100;2024-01-11T08:43:34;-1.10;99.90
55642;DHT22;41509;53.108;6.100;2024-01-11T08:45:59;-1.10;99.90
55642;DHT22;41509;53.108;6.100;2024-01-11T08:48:27;-1.00;99.90
55642;DHT22;41509;53.108;6.100;2024-01-11T08:50:53;-1.00;99.90
55642;DHT22;41509;53.108;6.100;2024-01-11T08:53:19;-1.00;99.90
55642;DHT22;41509;53.108;6.100;2024-01-11T08:55:45;-0.90;99.90
55642;DHT22;41509;53.108;6.100;2024-01-11T08:58:11;-0.90;99.90
55642;DHT22;41509;53.108;6.100;2024-01-11T09:00:37;-0.90;99.90
55642;DHT22;41509;53.108;6.100;2024-01-11T09:03:03;-0.90;99.90
55642;DHT22;41509;53.108;6.100;2024-01-11T09:05:29;-0.80;99.90
55642;DHT22;41509;53.108;6.100;2024-01-11T09:07:55;-0.80;99.90
55642;DHT22;41509;53.108;6.100;2024-01-11T09:10:21;-0.80;99.90
55642;DHT22;41509;53.108;6.100;2024-01-11T09:12:46;-0.70;99.90
55642;DHT22;41509;53.108;6.100;2024-01-11T09:15:12;-0.70;99.90
55642;DHT22;41509;53.108;6.100;2024-01-11T09:17:38;-0.60;99.90
55642;DHT22;41509;53.108;6.100;2024-01-11T09:20:04;-0.60;99.90
55642;DHT22;41509;53.108;6.100;2024-01-11T09:22:30;-0.60;99.90
55642;DHT22;41509;53.108;6.100;2024-01-11T09:24:56;-0.50;99.90
55642;DHT22;41509;53.108;6.100;2024-01-11T09:27:22;-0.50;99.90
55642;DHT22;41509;53.108;6.100;2024-01-11T09:29:47;-0.50;99.90
55642;DHT22;41509;53.108;6.100;2024-01-11T09:32:13;-0.40;99.90
55642;DHT22;41509;53.108;6.100;2024-01-11T09:34:39;-0.40;99.90
55642;DHT22;41509;53.108;6.100;2024-01-11T09:37:05;-0.40;99.90
55642;DHT22;41509;53.108;6.100;2024-01-11T09:39:31;-0.30;99.90
55642;DHT22;41509;53.108;6.100;2024-01-11T09:42:07;-0.20;99.90
55642;DHT22;41509;53.108;6.100;2024-01-11T09:44:36;-0.20;99.90
55642;DHT22;41509;53.108;6.100;2024-01-11T09:47:04;-0.10;99.90
55642;DHT22;41509;53.108;6.100;2024-01-11T09:49:32;-0.10;99.90
55642;DHT22;41509;53.108;6.100;2024-01-11T09:52:00;0.00;99.90
55642;DHT22;41509;53.108;6.100;2024-01-11T09:54:27;0.00;99.90
55642;DHT22;41509;53.108;6.100;2024-01-11T09:56:54;0.00;99.90
55642;DHT22;41509;53.108;6.100;2024-01-11T09:59:21;0.10;99.90
55642;DHT22;41509;53.108;6.100;2024-01-11T10:01:49;0.10;99.90
55642;DHT22;41509;53.108;6.100;2024-01-11T10:04:16;0.10;99.90
55642;DHT22;41509;53.108;6.100;2024-01-11T10:06:42;0.20;99.90
55642;DHT22;41509;53.108;6.100;2024-01-11T10:09:09;0.20;99.90
55642;DHT22;41509;53.108;6.100;2024-01-11T10:11:35;0.30;99.90
55642;DHT22;41509;53.108;6.100;2024-01-11T10:14:01;0.30;99.90
55642;DHT22;41509;53.108;6.100;2024-01-11T10:16:28;0.40;99.90
55642;DHT22;41509;53.108;6.100;2024-01-11T10:18:55;0.40;99.90
55642;DHT22;41509;53.108;6.100;2024-01-11T10:21:21;0.50;99.90
55642;DHT22;41509;53.108;6.100;2024-01-11T10:23:47;0.50;99.90
55642;DHT22;41509;53.108;6.100;2024-01-11T10:26:17;0.50;99.90
55642;DHT22;41509;53.108;6.100;2024-01-11T10:28:45;0.50;99.90
55642;DHT22;41509;53.108;6.100;2024-01-11T10:31:11;0.60;99.90
55642;DHT22;41509;53.108;6.100;2024-01-11T10:33:36;0.60;99.90
55642;DHT22;41509;53.108;6.100;2024-01-11T10:36:03;0.60;99.90
55642;DHT22;41509;53.108;6.100;2024-01-11T10:38:30;0.70;99.90
55642;DHT22;41509;53.108;6.100;2024-01-11T10:41:00;0.70;99.90
55642;DHT22;41509;53.108;6.100;2024-01-11T10:43:27;0.70;99.90
55642;DHT22;41509;53.108;6.100;2024-01-11T10:46:00;0.80;99.90
55642;DHT22;41509;53.108;6.100;2024-01-11T10:48:30;0.80;99.90
55642;DHT22;41509;53.108;6.100;2024-01-11T10:51:00;0.80;99.90
55642;DHT22;41509;53.108;6.100;2024-01-11T10:53:43;0.80;99.90
55642;DHT22;41509;53.108;6.100;2024-01-11T10:56:10;0.90;99.90
55642;DHT22;41509;53.108;6.100;2024-01-11T10:58:43;0.90;99.90
55642;DHT22;41509;53.108;6.100;2024-01-11T11:01:10;0.90;99.90
55642;DHT22;41509;53.108;6.100;2024-01-11T11:03:37;0.90;99.90
55642;DHT22;41509;53.108;6.100;2024-01-11T11:06:05;1.00;99.90
55642;DHT22;41509;53.108;6.100;2024-01-11T11:08:34;1.00;99.90
55642;DHT22;41509;53.108;6.100;2024-01-11T11:11:02;1.00;99.90
55642;DHT22;41509;53.108;6.100;2024-01-11T11:13:32;1.10;99.90
55642;DHT22;41509;53.108;6.100;2024-01-11T11:16:00;1.10;99.90
55642;DHT22;41509;53.108;6.100;2024-01-11T11:18:27;1.10;99.90
55642;DHT22;41509;53.108;6.100;2024-01-11T11:20:53;1.20;99.90
55642;DHT22;41509;53.108;6.100;2024-01-11T11:23:19;1.20;99.90
55642;DHT22;41509;53.108;6.100;2024-01-11T11:25:46;1.20;99.90
55642;DHT22;41509;53.108;6.100;2024-01-11T11:28:13;1.20;99.90
55642;DHT22;41509;53.108;6.100;2024-01-11T11:30:44;1.20;99.90
55642;DHT22;41509;53.108;6.100;2024-01-11T11:33:11;1.20;99.90
55642;DHT22;41509;53.108;6.100;2024-01-11T11:35:41;1.30;99.90
55642;DHT22;41509;53.108;6.100;2024-01-11T11:38:08;1.40;99.90
55642;DHT22;41509;53.108;6.100;2024-01-11T11:40:42;1.40;99.90
55642;DHT22;41509;53.108;6.100;2024-01-11T11:43:10;1.40;99.90
55642;DHT22;41509;53.108;6.100;2024-01-11T11:45:37;1.50;99.90
55642;DHT22;41509;53.108;6.100;2024-01-11T11:51:12;1.50;99.90
55642;DHT22;41509;53.108;6.100;2024-01-11T11:53:41;1.50;99.90
55642;DHT22;41509;53.108;6.100;2024-01-11T11:56:09;1.60;99.90
55642;DHT22;41509;53.108;6.100;2024-01-11T11:58:36;1.60;99.90
55642;DHT22;41509;53.108;6.100;2024-01-11T12:01:03;1.60;99.90
55642;DHT22;41509;53.108;6.100;2024-01-11T12:03:34;1.60;99.90
55642;DHT22;41509;53.108;6.100;2024-01-11T12:06:04;1.70;99.90
55642;DHT22;41509;53.108;6.100;2024-01-11T12:08:30;1.70;99.90
55642;DHT22;41509;53.108;6.100;2024-01-11T12:10:56;1.70;99.90
55642;DHT22;41509;53.108;6.100;2024-01-11T12:13:23;1.80;99.90
55642;DHT22;41509;53.108;6.100;2024-01-11T12:15:49;1.80;99.90
55642;DHT22;41509;53.108;6.100;2024-01-11T12:18:15;1.80;99.90
55642;DHT22;41509;53.108;6.100;2024-01-11T12:20:40;1.90;99.90
55642;DHT22;41509;53.108;6.100;2024-01-11T12:23:07;1.80;99.90
55642;DHT22;41509;53.108;6.100;2024-01-11T12:25:32;1.80;99.90
55642;DHT22;41509;53.108;6.100;2024-01-11T12:27:58;1.90;99.90
55642;DHT22;41509;53.108;6.100;2024-01-11T12:30:27;1.90;99.90
55642;DHT22;41509;53.108;6.100;2024-01-11T12:32:55;1.90;99.90
55642;DHT22;41509;53.108;6.100;2024-01-11T12:35:24;1.90;99.90
55642;DHT22;41509;53.108;6.100;2024-01-11T12:40:19;2.00;99.90
55642;DHT22;41509;53.108;6.100;2024-01-11T12:42:45;2.00;99.90
55642;DHT22;41509;53.108;6.100;2024-01-11T12:45:11;2.00;99.90
55642;DHT22;41509;53.108;6.100;2024-01-11T12:47:36;2.00;99.90
55642;DHT22;41509;53.108;6.100;2024-01-11T12:50:03;2.00;99.90
55642;DHT22;41509;53.108;6.100;2024-01-11T12:52:29;2.10;99.90
55642;DHT22;41509;53.108;6.100;2024-01-11T12:54:55;2.10;99.90
55642;DHT22;41509;53.108;6.100;2024-01-11T12:57:22;2.10;99.90
55642;DHT22;41509;53.108;6.100;2024-01-11T12:59:48;2.10;99.90
55642;DHT22;41509;53.108;6.100;2024-01-11T13:02:15;2.10;99.90
55642;DHT22;41509;53.108;6.100;2024-01-11T13:04:43;2.10;99.90
55642;DHT22;41509;53.108;6.100;2024-01-11T13:07:10;2.20;99.90
55642;DHT22;41509;53.108;6.100;2024-01-11T13:09:38;2.20;99.90
55642;DHT22;41509;53.108;6.100;2024-01-11T13:12:04;2.20;99.90
55642;DHT22;41509;53.108;6.100;2024-01-11T13:14:30;2.30;99.90
55642;DHT22;41509;53.108;6.100;2024-01-11T13:16:56;2.30;99.90
55642;DHT22;41509;53.108;6.100;2024-01-11T13:19:23;2.30;99.90
55642;DHT22;41509;53.108;6.100;2024-01-11T13:21:48;2.30;99.90
55642;DHT22;41509;53.108;6.100;2024-01-11T13:24:14;2.30;99.90
55642;DHT22;41509;53.108;6.100;2024-01-11T13:26:40;2.40;99.90
55642;DHT22;41509;53.108;6.100;2024-01-11T13:29:06;2.40;99.90
55642;DHT22;41509;53.108;6.100;2024-01-11T13:31:33;2.40;99.90
55642;DHT22;41509;53.108;6.100;2024-01-11T13:33:59;2.40;99.90
55642;DHT22;41509;53.108;6.100;2024-01-11T13:36:26;2.50;99.90
55642;DHT22;41509;53.108;6.100;2024-01-11T13:38:52;2.50;99.90
55642;DHT22;41509;53.108;6.100;2024-01-11T13:41:19;2.50;99.90
55642;DHT22;41509;53.108;6.100;2024-01-11T13:43:45;2.50;99.90
55642;DHT22;41509;53.108;6.100;2024-01-11T13:46:11;2.50;99.90
55642;DHT22;41509;53.108;6.100;2024-01-11T13:48:42;2.60;99.90
55642;DHT22;41509;53.108;6.100;2024-01-11T13:51:08;2.60;99.90
55642;DHT22;41509;53.108;6.100;2024-01-11T13:53:38;2.60;99.90
55642;DHT22;41509;53.108;6.100;2024-01-11T13:56:05;2.60;99.90
55642;DHT22;41509;53.108;6.100;2024-01-11T13:58:31;2.60;99.90
55642;DHT22;41509;53.108;6.100;2024-01-11T14:00:57;2.60;99.90
55642;DHT22;41509;53.108;6.100;2024-01-11T14:03:24;2.60;99.90
55642;DHT22;41509;53.108;6.100;2024-01-11T14:05:50;2.60;99.90
55642;DHT22;41509;53.108;6.100;2024-01-11T14:08:16;2.60;99.90
55642;DHT22;41509;53.108;6.100;2024-01-11T14:10:42;2.70;99.90
55642;DHT22;41509;53.108;6.100;2024-01-11T14:13:08;2.70;99.90
55642;DHT22;41509;53.108;6.100;2024-01-11T14:15:35;2.70;99.90
55642;DHT22;41509;53.108;6.100;2024-01-11T14:18:01;2.70;99.90
55642;DHT22;41509;53.108;6.100;2024-01-11T14:20:27;2.70;99.90
55642;DHT22;41509;53.108;6.100;2024-01-11T14:22:53;2.70;99.90
55642;DHT22;41509;53.108;6.100;2024-01-11T14:25:23;2.70;99.90
55642;DHT22;41509;53.108;6.100;2024-01-11T14:27:50;2.70;99.90
55642;DHT22;41509;53.108;6.100;2024-01-11T14:30:16;2.70;99.90
55642;DHT22;41509;53.108;6.100;2024-01-11T14:32:43;2.80;99.90
55642;DHT22;41509;53.108;6.100;2024-01-11T14:35:09;2.70;99.90
55642;DHT22;41509;53.108;6.100;2024-01-11T14:37:36;2.80;99.90
55642;DHT22;41509;53.108;6.100;2024-01-11T14:40:04;2.80;99.90
55642;DHT22;41509;53.108;6.100;2024-01-11T14:42:30;2.80;99.90
55642;DHT22;41509;53.108;6.100;2024-01-11T14:44:56;2.90;99.90
55642;DHT22;41509;53.108;6.100;2024-01-11T14:47:23;2.90;99.90
55642;DHT22;41509;53.108;6.100;2024-01-11T14:49:49;2.90;99.90
55642;DHT22;41509;53.108;6.100;2024-01-11T14:52:16;2.90;99.90
55642;DHT22;41509;53.108;6.100;2024-01-11T14:54:42;2.90;99.90
55642;DHT22;41509;53.108;6.100;2024-01-11T14:57:08;2.90;99.90
55642;DHT22;41509;53.108;6.100;2024-01-11T14:59:35;2.90;99.90
55642;DHT22;41509;53.108;6.100;2024-01-11T15:02:01;2.90;99.90
55642;DHT22;41509;53.108;6.100;2024-01-11T15:04:28;2.90;99.90
55642;DHT22;41509;53.108;6.100;2024-01-11T15:06:54;3.00;99.90
55642;DHT22;41509;53.108;6.100;2024-01-11T15:09:20;3.00;99.90
55642;DHT22;41509;53.108;6.100;2024-01-11T15:11:46;2.90;99.90
55642;DHT22;41509;53.108;6.100;2024-01-11T15:14:13;2.90;99.90
55642;DHT22;41509;53.108;6.100;2024-01-11T15:16:39;2.90;99.90
55642;DHT22;41509;53.108;6.100;2024-01-11T15:19:05;2.90;99.90
55642;DHT22;41509;53.108;6.100;2024-01-11T15:21:31;2.90;99.90
55642;DHT22;41509;53.108;6.100;2024-01-11T15:23:58;2.90;99.90
55642;DHT22;41509;53.108;6.100;2024-01-11T15:26:25;2.90;99.90
55642;DHT22;41509;53.108;6.100;2024-01-11T15:28:53;2.90;99.90
55642;DHT22;41509;53.108;6.100;2024-01-11T15:31:19;2.90;99.90
55642;DHT22;41509;53.108;6.100;2024-01-11T15:33:45;2.90;99.90
55642;DHT22;41509;53.108;6.100;2024-01-11T15:36:12;2.90;99.90
55642;DHT22;41509;53.108;6.100;2024-01-11T15:38:38;3.00;99.90